Time;durP1;ratioP1;P1;durP2;ratioP2;P2;SDS_P1;SDS_P2;PMS_P1;PMS_P2;Temp;Humidity;BMP_temperature;BMP_pressure;BME280_temperature;BME280_humidity;BME280_pressure;Samples;Min_cycle;Max_cycle;Signal;HPM_P1;HPM_P2
2023/01/07 00:01:18;;;;;;;;;;;10.10;96.50;;;;;;5020499;28;19936;-75
2023/01/07 00:03:45;;;;;;;;;;;10.10;96.50;;;;;;5015502;28;19938;-76
2023/01/07 00:06:13;;;;;;;;;;;10.10;96.50;;;;;;5022181;28;20008;-75
2023/01/07 00:08:42;;;;;;;;;;;10.10;96.60;;;;;;5020842;28;19933;-75
2023/01/07 00:11:09;;;;;;;;;;;10.20;96.60;;;;;;5016069;28;19951;-76
2023/01/07 00:13:36;;;;;;;;;;;10.10;96.60;;;;;;5020791;28;19959;-76
2023/01/07 00:16:04;;;;;;;;;;;10.10;96.60;;;;;;5021703;28;19933;-76
2023/01/07 00:18:31;;;;;;;;;;;10.10;96.70;;;;;;5022516;28;19936;-75
2023/01/07 00:20:57;;;;;;;;;;;10.10;96.70;;;;;;5018465;28;19925;-75
2023/01/07 00:23:24;;;;;;;;;;;10.10;96.70;;;;;;5020430;28;20459;-76
2023/01/07 00:25:52;;;;;;;;;;;10.10;96.70;;;;;;5019595;28;19935;-76
2023/01/07 00:28:19;;;;;;;;;;;10.10;96.80;;;;;;5019962;28;19976;-75
2023/01/07 00:30:45;;;;;;;;;;;10.10;96.80;;;;;;5018168;28;19930;-76
2023/01/07 00:33:14;;;;;;;;;;;10.10;96.80;;;;;;5015693;28;19934;-74
2023/01/07 00:35:43;;;;;;;;;;;10.10;96.80;;;;;;5023258;28;19935;-74
2023/01/07 00:38:10;;;;;;;;;;;10.10;96.80;;;;;;5021701;28;19932;-75
2023/01/07 00:40:37;;;;;;;;;;;10.00;96.80;;;;;;5021354;28;19929;-76
2023/01/07 00:43:05;;;;;;;;;;;10.10;96.90;;;;;;5013526;28;20374;-76
2023/01/07 00:45:33;;;;;;;;;;;10.10;96.90;;;;;;5012788;28;19933;-75
2023/01/07 00:48:00;;;;;;;;;;;10.00;96.90;;;;;;5020060;28;19956;-76
2023/01/07 00:50:28;;;;;;;;;;;10.10;96.90;;;;;;5018216;28;20011;-76
2023/01/07 00:52:55;;;;;;;;;;;10.10;96.90;;;;;;5022295;28;19929;-75
2023/01/07 00:55:21;;;;;;;;;;;10.10;96.90;;;;;;5019593;28;19957;-75
2023/01/07 00:57:48;;;;;;;;;;;10.00;96.90;;;;;;5016306;28;19945;-76
2023/01/07 01:00:17;;;;;;;;;;;10.00;97.30;;;;;;5021327;28;19933;-75
2023/01/07 01:02:45;;;;;;;;;;;10.10;97.00;;;;;;5019483;28;19929;-76
2023/01/07 01:05:11;;;;;;;;;;;10.00;97.00;;;;;;5019720;28;20614;-76
2023/01/07 01:07:38;;;;;;;;;;;10.00;97.00;;;;;;5020641;28;20028;-75
2023/01/07 01:10:06;;;;;;;;;;;10.00;97.00;;;;;;5016890;28;19983;-76
2023/01/07 01:12:34;;;;;;;;;;;10.00;97.00;;;;;;5019914;28;19935;-76
2023/01/07 01:15:00;;;;;;;;;;;10.00;97.10;;;;;;5019509;28;19937;-75
2023/01/07 01:17:28;;;;;;;;;;;10.00;97.00;;;;;;5016755;28;19929;-76
2023/01/07 01:19:55;;;;;;;;;;;10.00;97.00;;;;;;5021143;28;19936;-76
2023/01/07 01:22:21;;;;;;;;;;;10.00;97.00;;;;;;5019066;28;19929;-75
2023/01/07 01:24:48;;;;;;;;;;;10.00;97.00;;;;;;5021355;28;19929;-75
2023/01/07 01:27:15;;;;;;;;;;;10.00;97.10;;;;;;5014175;28;19925;-75
2023/01/07 01:29:42;;;;;;;;;;;10.00;97.10;;;;;;5018499;28;19941;-76
2023/01/07 01:32:08;;;;;;;;;;;10.00;97.10;;;;;;5010259;28;20413;-76
2023/01/07 01:34:36;;;;;;;;;;;10.00;97.10;;;;;;5016341;28;19936;-76
2023/01/07 01:37:02;;;;;;;;;;;10.00;97.10;;;;;;5015590;28;19936;-75
2023/01/07 01:39:29;;;;;;;;;;;9.90;97.10;;;;;;5018911;28;19933;-76
2023/01/07 01:41:56;;;;;;;;;;;10.00;97.10;;;;;;5014421;28;19940;-75
2023/01/07 01:44:33;;;;;;;;;;;10.00;97.20;;;;;;5021023;28;19929;-76
2023/01/07 01:47:00;;;;;;;;;;;10.00;97.20;;;;;;5015448;28;20619;-74
2023/01/07 01:49:29;;;;;;;;;;;9.90;97.20;;;;;;5020568;28;19932;-74
2023/01/07 01:51:58;;;;;;;;;;;9.90;97.20;;;;;;5017347;28;20717;-74
2023/01/07 01:54:25;;;;;;;;;;;10.00;97.20;;;;;;5022931;28;19936;-74
2023/01/07 01:56:52;;;;;;;;;;;9.90;97.20;;;;;;5017086;28;19979;-76
2023/01/07 01:59:21;;;;;;;;;;;10.00;97.30;;;;;;5016735;28;19929;-75
2023/01/07 02:01:48;;;;;;;;;;;9.90;97.30;;;;;;5013206;28;19937;-76
2023/01/07 02:04:16;;;;;;;;;;;9.90;97.30;;;;;;5017828;28;20321;-75
2023/01/07 02:06:45;;;;;;;;;;;9.90;97.30;;;;;;5021471;28;19940;-76
2023/01/07 02:09:13;;;;;;;;;;;9.90;97.30;;;;;;5019346;28;19930;-75
2023/01/07 02:11:44;;;;;;;;;;;10.00;97.30;;;;;;5018449;28;19941;-76
2023/01/07 02:14:26;;;;;;;;;;;9.90;97.30;;;;;;5022651;28;19994;-76
2023/01/07 02:16:56;;;;;;;;;;;9.90;97.30;;;;;;5021463;28;19965;-76
2023/01/07 02:19:37;;;;;;;;;;;9.90;97.40;;;;;;5013383;28;19936;-75
2023/01/07 02:22:07;;;;;;;;;;;9.90;97.40;;;;;;5026274;28;20362;-76
2023/01/07 02:24:49;;;;;;;;;;;9.90;97.40;;;;;;5019730;28;19945;-77
2023/01/07 02:27:21;;;;;;;;;;;9.90;97.70;;;;;;5023813;28;19933;-75
2023/01/07 02:30:05;;;;;;;;;;;9.90;97.40;;;;;;5021686;28;19937;-75
2023/01/07 02:32:40;;;;;;;;;;;9.90;97.40;;;;;;5009058;28;19940;-75
2023/01/07 02:35:13;;;;;;;;;;;9.90;97.40;;;;;;5018230;28;19937;-76
2023/01/07 02:37:45;;;;;;;;;;;9.90;97.50;;;;;;5019881;28;19971;-76
2023/01/07 02:40:19;;;;;;;;;;;9.90;97.40;;;;;;5023166;28;20403;-76
2023/01/07 02:42:51;;;;;;;;;;;9.90;97.40;;;;;;5020897;28;19925;-75
2023/01/07 02:45:19;;;;;;;;;;;9.90;97.40;;;;;;5019793;28;19925;-76
2023/01/07 02:47:50;;;;;;;;;;;9.90;97.40;;;;;;5025114;28;19936;-76
2023/01/07 02:50:17;;;;;;;;;;;9.90;97.40;;;;;;5025550;28;19925;-75
2023/01/07 02:52:44;;;;;;;;;;;9.90;97.40;;;;;;5022559;28;20540;-76
2023/01/07 02:55:12;;;;;;;;;;;9.80;97.40;;;;;;5026956;28;19933;-76
2023/01/07 02:58:07;;;;;;;;;;;9.80;97.40;;;;;;5017914;28;19925;-75
2023/01/07 03:00:54;;;;;;;;;;;9.80;97.40;;;;;;5023356;28;19941;-76
2023/01/07 03:03:30;;;;;;;;;;;9.80;97.50;;;;;;5017140;28;19925;-75
2023/01/07 03:06:01;;;;;;;;;;;9.80;97.40;;;;;;5026248;28;19933;-76
2023/01/07 03:08:42;;;;;;;;;;;9.90;97.50;;;;;;5024851;28;19936;-75
2023/01/07 03:11:10;;;;;;;;;;;9.80;97.50;;;;;;5022610;28;20375;-75
2023/01/07 03:13:38;;;;;;;;;;;9.80;97.50;;;;;;5020937;28;19929;-76
2023/01/07 03:16:07;;;;;;;;;;;9.80;97.50;;;;;;5025885;28;19929;-76
2023/01/07 03:18:36;;;;;;;;;;;9.80;97.50;;;;;;5023506;28;19971;-76
2023/01/07 03:21:05;;;;;;;;;;;9.80;97.50;;;;;;5024058;28;19932;-76
2023/01/07 03:23:33;;;;;;;;;;;9.80;97.50;;;;;;5023898;28;20701;-76
2023/01/07 03:26:03;;;;;;;;;;;9.80;97.50;;;;;;5017296;28;20426;-76
2023/01/07 03:28:31;;;;;;;;;;;9.80;97.50;;;;;;5019903;28;19929;-75
2023/01/07 03:30:58;;;;;;;;;;;9.80;97.50;;;;;;5020771;28;19929;-76
2023/01/07 03:33:27;;;;;;;;;;;9.80;97.50;;;;;;5012428;28;19933;-76
2023/01/07 03:35:56;;;;;;;;;;;9.80;97.50;;;;;;5017299;28;19937;-75
2023/01/07 03:38:23;;;;;;;;;;;9.80;97.50;;;;;;5017807;28;19929;-76
2023/01/07 03:40:50;;;;;;;;;;;9.80;97.50;;;;;;5022789;28;19929;-75
2023/01/07 03:43:17;;;;;;;;;;;9.80;97.50;;;;;;5017386;28;20003;-75
2023/01/07 03:45:45;;;;;;;;;;;9.80;97.50;;;;;;5016848;28;19932;-75
2023/01/07 03:48:11;;;;;;;;;;;9.80;97.50;;;;;;5020701;28;19940;-75
2023/01/07 03:50:38;;;;;;;;;;;9.80;97.50;;;;;;5021795;28;19936;-75
2023/01/07 03:53:06;;;;;;;;;;;9.80;97.50;;;;;;5022981;28;19940;-75
2023/01/07 03:55:32;;;;;;;;;;;9.80;97.50;;;;;;5018625;28;20461;-75
2023/01/07 03:57:59;;;;;;;;;;;9.80;97.50;;;;;;5019027;28;19932;-75
2023/01/07 04:00:25;;;;;;;;;;;9.80;97.50;;;;;;5020750;28;19937;-76
2023/01/07 04:02:52;;;;;;;;;;;9.80;97.50;;;;;;5020384;28;19937;-75
2023/01/07 04:05:19;;;;;;;;;;;9.80;97.50;;;;;;5021099;28;20306;-75
2023/01/07 04:07:45;;;;;;;;;;;9.80;97.50;;;;;;5024607;28;20000;-76
2023/01/07 04:10:13;;;;;;;;;;;9.70;97.60;;;;;;5017360;28;20422;-77
2023/01/07 04:12:39;;;;;;;;;;;9.80;97.50;;;;;;5016388;28;19933;-76
2023/01/07 04:15:06;;;;;;;;;;;9.80;97.50;;;;;;5018793;28;19926;-74
2023/01/07 04:17:33;;;;;;;;;;;9.70;97.50;;;;;;5020130;28;19936;-75
2023/01/07 04:19:59;;;;;;;;;;;9.70;97.90;;;;;;5019487;28;19933;-76
2023/01/07 04:22:26;;;;;;;;;;;9.70;97.50;;;;;;5024148;28;19965;-76
2023/01/07 04:24:53;;;;;;;;;;;9.70;97.60;;;;;;5020908;28;19940;-76
2023/01/07 04:27:20;;;;;;;;;;;9.70;97.60;;;;;;5021478;28;19929;-76
2023/01/07 04:29:47;;;;;;;;;;;9.70;97.60;;;;;;5023586;28;19929;-76
2023/01/07 04:32:14;;;;;;;;;;;9.70;97.60;;;;;;5022932;28;20418;-75
2023/01/07 04:34:40;;;;;;;;;;;9.70;97.60;;;;;;5022265;28;20421;-75
2023/01/07 04:37:07;;;;;;;;;;;9.70;97.60;;;;;;5020922;28;19929;-76
2023/01/07 04:39:33;;;;;;;;;;;9.70;97.60;;;;;;5021686;28;19929;-75
2023/01/07 04:42:00;;;;;;;;;;;9.70;97.60;;;;;;5022642;28;19976;-75
2023/01/07 04:44:27;;;;;;;;;;;9.70;97.60;;;;;;5022326;28;20296;-75
2023/01/07 04:46:54;;;;;;;;;;;9.70;97.70;;;;;;5014772;28;19975;-75
2023/01/07 04:49:20;;;;;;;;;;;9.60;97.60;;;;;;5022665;28;19938;-75
2023/01/07 04:51:47;;;;;;;;;;;9.70;97.70;;;;;;5017434;28;19929;-75
2023/01/07 04:54:14;;;;;;;;;;;9.70;97.70;;;;;;5021503;28;20369;-75
2023/01/07 04:56:40;;;;;;;;;;;9.70;97.70;;;;;;5018856;28;20394;-75
2023/01/07 04:59:07;;;;;;;;;;;9.70;97.70;;;;;;5022733;28;19932;-76
2023/01/07 05:01:34;;;;;;;;;;;9.70;97.70;;;;;;5018809;28;19933;-75
2023/01/07 05:04:01;;;;;;;;;;;9.70;97.70;;;;;;5014378;28;19928;-75
2023/01/07 05:06:27;;;;;;;;;;;9.70;97.70;;;;;;5011093;28;19933;-75
2023/01/07 05:08:54;;;;;;;;;;;9.70;97.70;;;;;;5020393;28;19929;-76
2023/01/07 05:11:21;;;;;;;;;;;9.70;97.70;;;;;;5018834;28;19929;-75
2023/01/07 05:13:48;;;;;;;;;;;9.70;97.70;;;;;;5024487;28;19936;-76
2023/01/07 05:16:15;;;;;;;;;;;9.70;97.70;;;;;;5021633;28;20024;-75
2023/01/07 05:18:43;;;;;;;;;;;9.70;97.70;;;;;;5018061;28;19959;-75
2023/01/07 05:21:10;;;;;;;;;;;9.60;97.70;;;;;;5015791;28;19929;-76
2023/01/07 05:23:36;;;;;;;;;;;9.60;97.70;;;;;;5013942;28;19936;-76
2023/01/07 05:26:03;;;;;;;;;;;9.70;97.70;;;;;;5015600;28;19937;-75
2023/01/07 05:28:30;;;;;;;;;;;9.70;97.70;;;;;;5022212;28;19933;-75
2023/01/07 05:30:56;;;;;;;;;;;9.60;97.70;;;;;;5019782;28;19982;-75
2023/01/07 05:33:23;;;;;;;;;;;9.60;97.70;;;;;;5017375;28;19995;-76
2023/01/07 05:35:52;;;;;;;;;;;9.60;97.70;;;;;;5015269;28;21398;-76
2023/01/07 05:38:19;;;;;;;;;;;9.60;97.70;;;;;;5013700;28;19936;-76
2023/01/07 05:40:47;;;;;;;;;;;9.60;97.70;;;;;;5014394;28;19929;-76
2023/01/07 05:43:13;;;;;;;;;;;9.60;97.80;;;;;;5016309;28;19933;-75
2023/01/07 05:45:42;;;;;;;;;;;9.60;97.80;;;;;;5020920;28;19929;-76
2023/01/07 05:48:09;;;;;;;;;;;9.60;97.80;;;;;;5022583;28;19929;-76
2023/01/07 05:50:35;;;;;;;;;;;9.60;97.80;;;;;;5021846;28;20355;-75
2023/01/07 05:53:03;;;;;;;;;;;9.60;97.80;;;;;;5020017;28;19929;-76
2023/01/07 05:55:30;;;;;;;;;;;9.60;97.80;;;;;;5019399;28;19936;-76
2023/01/07 05:57:56;;;;;;;;;;;9.60;97.80;;;;;;5014518;28;19937;-75
2023/01/07 06:00:23;;;;;;;;;;;9.60;97.80;;;;;;5017014;28;19940;-76
2023/01/07 06:02:49;;;;;;;;;;;9.60;97.80;;;;;;5017433;28;19933;-76
2023/01/07 06:05:16;;;;;;;;;;;9.60;97.80;;;;;;5013881;28;19936;-75
2023/01/07 06:07:43;;;;;;;;;;;9.60;97.80;;;;;;5019935;28;19936;-75
2023/01/07 06:10:11;;;;;;;;;;;9.60;97.80;;;;;;5016684;28;19940;-75
2023/01/07 06:12:37;;;;;;;;;;;9.60;97.80;;;;;;5010084;28;19972;-75
2023/01/07 06:15:05;;;;;;;;;;;9.60;97.80;;;;;;5014645;28;19930;-76
2023/01/07 06:17:31;;;;;;;;;;;9.60;97.70;;;;;;5015851;28;19936;-76
2023/01/07 06:19:58;;;;;;;;;;;9.60;97.70;;;;;;5012788;28;19972;-76
2023/01/07 06:22:24;;;;;;;;;;;9.60;97.70;;;;;;5014396;28;20334;-75
2023/01/07 06:24:51;;;;;;;;;;;9.60;97.70;;;;;;5017155;28;19929;-76
2023/01/07 06:27:19;;;;;;;;;;;9.60;97.70;;;;;;5018022;28;19975;-75
2023/01/07 06:29:45;;;;;;;;;;;9.60;97.60;;;;;;5016864;28;19936;-76
2023/01/07 06:32:12;;;;;;;;;;;9.60;97.60;;;;;;5019849;28;19940;-76
2023/01/07 06:34:38;;;;;;;;;;;9.60;97.60;;;;;;5019731;28;19925;-76
2023/01/07 06:37:05;;;;;;;;;;;9.50;97.60;;;;;;5019298;28;19933;-76
2023/01/07 06:39:32;;;;;;;;;;;9.50;97.60;;;;;;5016603;28;19933;-76
2023/01/07 06:41:58;;;;;;;;;;;9.60;97.60;;;;;;5019357;28;19934;-76
2023/01/07 06:44:26;;;;;;;;;;;9.50;97.60;;;;;;5018831;28;19940;-76
2023/01/07 06:46:53;;;;;;;;;;;9.60;97.60;;;;;;5018358;28;19933;-76
2023/01/07 06:49:19;;;;;;;;;;;9.50;97.60;;;;;;5017728;28;19936;-75
2023/01/07 06:51:46;;;;;;;;;;;9.50;97.60;;;;;;5019444;28;19940;-75
2023/01/07 06:54:12;;;;;;;;;;;9.50;97.60;;;;;;5018914;28;19933;-75
2023/01/07 06:56:39;;;;;;;;;;;9.50;97.60;;;;;;5022013;28;19929;-76
2023/01/07 06:59:05;;;;;;;;;;;9.60;97.70;;;;;;5019641;28;19929;-76
2023/01/07 07:01:33;;;;;;;;;;;9.50;97.70;;;;;;5018327;28;20129;-76
2023/01/07 07:04:00;;;;;;;;;;;9.50;97.60;;;;;;5016745;28;19933;-75
2023/01/07 07:06:26;;;;;;;;;;;9.50;97.60;;;;;;5020941;28;19932;-75
2023/01/07 07:08:53;;;;;;;;;;;9.50;97.60;;;;;;5022952;28;19936;-76
2023/01/07 07:11:19;;;;;;;;;;;9.50;97.50;;;;;;5020735;28;20355;-75
2023/01/07 07:13:46;;;;;;;;;;;9.50;97.40;;;;;;5023879;28;19979;-76
2023/01/07 07:16:12;;;;;;;;;;;9.50;97.40;;;;;;5024850;28;19929;-75
2023/01/07 07:18:40;;;;;;;;;;;9.50;97.40;;;;;;5022163;28;19937;-77
2023/01/07 07:21:08;;;;;;;;;;;9.50;97.40;;;;;;5021876;28;20567;-75
2023/01/07 07:23:34;;;;;;;;;;;9.50;97.40;;;;;;5025463;28;20391;-75
2023/01/07 07:26:01;;;;;;;;;;;9.50;97.40;;;;;;5020261;28;19933;-75
2023/01/07 07:28:27;;;;;;;;;;;9.50;97.50;;;;;;5018623;28;20418;-75
2023/01/07 07:30:54;;;;;;;;;;;9.50;97.50;;;;;;5025362;28;19929;-75
2023/01/07 07:33:20;;;;;;;;;;;9.50;97.50;;;;;;5022783;28;19948;-75
2023/01/07 07:35:48;;;;;;;;;;;9.50;97.50;;;;;;5022128;28;19937;-75
2023/01/07 07:38:16;;;;;;;;;;;9.50;97.50;;;;;;5018464;28;20001;-75
2023/01/07 07:40:43;;;;;;;;;;;9.50;97.50;;;;;;5015078;28;19936;-75
2023/01/07 07:43:09;;;;;;;;;;;9.50;97.50;;;;;;5019595;28;20311;-75
2023/01/07 07:45:36;;;;;;;;;;;9.50;97.50;;;;;;5021005;28;19936;-75
2023/01/07 07:48:04;;;;;;;;;;;9.50;97.50;;;;;;5017142;28;20007;-75
2023/01/07 07:50:31;;;;;;;;;;;9.50;97.50;;;;;;5021804;28;19937;-75
2023/01/07 07:52:59;;;;;;;;;;;9.50;97.50;;;;;;5018775;28;19932;-76
2023/01/07 07:55:25;;;;;;;;;;;9.50;97.60;;;;;;5022865;28;19929;-75
2023/01/07 07:57:52;;;;;;;;;;;9.40;97.50;;;;;;5020233;28;19933;-76
2023/01/07 08:00:19;;;;;;;;;;;9.40;97.50;;;;;;5022447;28;19936;-74
2023/01/07 08:02:45;;;;;;;;;;;9.50;97.50;;;;;;5021622;28;19929;-75
2023/01/07 08:05:12;;;;;;;;;;;9.50;97.50;;;;;;5020642;28;20311;-75
2023/01/07 08:07:39;;;;;;;;;;;9.40;97.50;;;;;;5021457;28;19929;-75
2023/01/07 08:10:07;;;;;;;;;;;9.50;97.50;;;;;;5017399;28;19999;-75
2023/01/07 08:12:36;;;;;;;;;;;9.40;97.50;;;;;;5019209;28;20737;-75
2023/01/07 08:15:03;;;;;;;;;;;9.50;97.50;;;;;;5014872;28;19940;-75
2023/01/07 08:17:29;;;;;;;;;;;9.40;97.50;;;;;;5019950;28;19929;-75
2023/01/07 08:19:56;;;;;;;;;;;9.40;97.50;;;;;;5019683;28;19936;-75
2023/01/07 08:22:22;;;;;;;;;;;9.40;97.50;;;;;;5015633;28;19937;-75
2023/01/07 08:24:49;;;;;;;;;;;9.50;97.50;;;;;;5017543;28;19933;-76
2023/01/07 08:27:17;;;;;;;;;;;9.40;97.50;;;;;;5020936;28;19936;-75
2023/01/07 08:29:43;;;;;;;;;;;9.40;97.50;;;;;;5022797;28;19936;-75
2023/01/07 08:32:10;;;;;;;;;;;9.40;97.50;;;;;;5015130;28;19935;-76
2023/01/07 08:34:36;;;;;;;;;;;9.40;97.40;;;;;;5023232;28;20071;-75
2023/01/07 08:37:03;;;;;;;;;;;9.50;97.30;;;;;;5019774;28;19936;-74
2023/01/07 08:39:30;;;;;;;;;;;9.40;97.30;;;;;;5021493;28;19929;-75
2023/01/07 08:41:56;;;;;;;;;;;9.40;97.30;;;;;;5019471;28;19929;-75
2023/01/07 08:44:24;;;;;;;;;;;9.40;97.30;;;;;;5018377;28;20477;-75
2023/01/07 08:46:52;;;;;;;;;;;9.40;97.30;;;;;;5018636;28;20395;-75
2023/01/07 08:49:18;;;;;;;;;;;9.40;97.30;;;;;;5018280;28;19929;-75
2023/01/07 08:51:45;;;;;;;;;;;9.40;97.30;;;;;;5019892;28;19929;-75
2023/01/07 08:54:11;;;;;;;;;;;9.50;97.30;;;;;;5018130;28;19951;-75
2023/01/07 08:56:38;;;;;;;;;;;9.50;97.30;;;;;;5013884;28;20601;-75
2023/01/07 08:59:04;;;;;;;;;;;9.50;97.30;;;;;;5023949;28;19933;-75
2023/01/07 09:01:32;;;;;;;;;;;9.50;97.30;;;;;;5020460;28;19937;-76
2023/01/07 09:03:59;;;;;;;;;;;9.40;97.20;;;;;;5021076;28;19933;-76
2023/01/07 09:06:25;;;;;;;;;;;9.40;97.20;;;;;;5019841;28;19933;-75
2023/01/07 09:08:52;;;;;;;;;;;9.40;97.20;;;;;;5018930;28;20006;-75
2023/01/07 09:11:18;;;;;;;;;;;9.40;97.20;;;;;;5020928;28;19952;-75
2023/01/07 09:13:45;;;;;;;;;;;9.40;97.10;;;;;;5019326;28;20378;-75
2023/01/07 09:16:11;;;;;;;;;;;9.40;97.00;;;;;;5016880;28;19937;-76
2023/01/07 09:18:39;;;;;;;;;;;9.40;97.00;;;;;;5017680;28;21005;-76
2023/01/07 09:21:06;;;;;;;;;;;9.50;97.00;;;;;;5015908;28;20671;-76
2023/01/07 09:23:32;;;;;;;;;;;9.50;97.00;;;;;;5021627;28;19982;-75
2023/01/07 09:25:59;;;;;;;;;;;9.40;97.00;;;;;;5020548;28;19933;-76
2023/01/07 09:28:25;;;;;;;;;;;9.40;96.90;;;;;;5015277;28;19929;-76
2023/01/07 09:30:52;;;;;;;;;;;9.40;96.90;;;;;;5013767;28;19929;-76
2023/01/07 09:33:18;;;;;;;;;;;9.40;96.90;;;;;;5020307;28;19933;-75
2023/01/07 09:35:46;;;;;;;;;;;9.40;96.90;;;;;;5012777;28;19936;-75
2023/01/07 09:38:13;;;;;;;;;;;9.50;96.80;;;;;;5021100;28;19932;-76
2023/01/07 09:40:41;;;;;;;;;;;9.40;96.80;;;;;;5022526;28;19975;-76
2023/01/07 09:43:10;;;;;;;;;;;9.40;96.80;;;;;;5020753;28;19987;-76
2023/01/07 09:45:40;;;;;;;;;;;9.40;96.80;;;;;;5014885;28;19937;-76
2023/01/07 09:48:12;;;;;;;;;;;9.50;96.80;;;;;;5018837;28;19940;-76
2023/01/07 09:50:44;;;;;;;;;;;9.50;96.80;;;;;;5012502;28;20940;-75
2023/01/07 09:53:16;;;;;;;;;;;9.50;96.80;;;;;;5012878;28;19936;-75
2023/01/07 09:55:43;;;;;;;;;;;9.50;96.80;;;;;;5019899;28;19944;-76
2023/01/07 09:58:13;;;;;;;;;;;9.40;96.80;;;;;;5020813;28;19929;-76
2023/01/07 10:00:46;;;;;;;;;;;9.50;96.80;;;;;;5010390;28;19945;-76
2023/01/07 10:03:17;;;;;;;;;;;9.50;97.10;;;;;;5017354;28;20003;-76
2023/01/07 10:05:48;;;;;;;;;;;9.50;96.80;;;;;;5016036;28;20414;-76
2023/01/07 10:08:22;;;;;;;;;;;9.50;96.80;;;;;;5014822;28;19937;-76
2023/01/07 10:10:51;;;;;;;;;;;9.50;96.80;;;;;;5018184;28;19929;-76
2023/01/07 10:13:32;;;;;;;;;;;9.50;96.80;;;;;;5016111;28;19940;-76
2023/01/07 10:16:00;;;;;;;;;;;9.50;96.80;;;;;;5011465;28;19929;-76
2023/01/07 10:18:34;;;;;;;;;;;9.50;96.70;;;;;;5011990;28;19936;-76
2023/01/07 10:21:05;;;;;;;;;;;9.50;96.70;;;;;;5018686;28;19936;-76
2023/01/07 10:23:36;;;;;;;;;;;9.50;96.60;;;;;;5010947;28;19944;-77
2023/01/07 10:26:03;;;;;;;;;;;9.50;96.60;;;;;;5018685;28;19983;-76
2023/01/07 10:28:31;;;;;;;;;;;9.50;96.60;;;;;;5014549;28;19937;-76
2023/01/07 10:31:00;;;;;;;;;;;9.50;96.60;;;;;;5016823;28;19937;-77
2023/01/07 10:33:28;;;;;;;;;;;9.50;96.60;;;;;;5019706;28;19929;-76
2023/01/07 10:36:00;;;;;;;;;;;9.50;96.60;;;;;;5025364;28;19929;-74
2023/01/07 10:38:29;;;;;;;;;;;9.50;96.60;;;;;;5021534;28;20012;-74
2023/01/07 10:40:58;;;;;;;;;;;9.50;96.50;;;;;;5023099;28;20497;-74
2023/01/07 10:43:34;;;;;;;;;;;9.60;96.50;;;;;;5022793;28;19933;-74
2023/01/07 10:46:08;;;;;;;;;;;9.50;96.50;;;;;;5020105;28;19946;-75
2023/01/07 10:48:53;;;;;;;;;;;9.60;96.50;;;;;;5018925;28;19929;-75
2023/01/07 10:51:40;;;;;;;;;;;9.60;96.50;;;;;;5017966;28;20383;-76
2023/01/07 10:54:11;;;;;;;;;;;9.60;96.40;;;;;;5017372;28;19929;-75
2023/01/07 10:56:41;;;;;;;;;;;9.60;96.30;;;;;;5024875;28;20003;-75
2023/01/07 10:59:09;;;;;;;;;;;9.60;96.20;;;;;;5020726;28;19939;-76
2023/01/07 11:01:37;;;;;;;;;;;9.60;96.20;;;;;;5017608;28;19926;-74
2023/01/07 11:04:04;;;;;;;;;;;9.60;96.10;;;;;;5021507;28;20893;-75
2023/01/07 11:06:36;;;;;;;;;;;9.70;96.10;;;;;;5023674;28;19952;-76
2023/01/07 11:09:04;;;;;;;;;;;9.70;96.00;;;;;;5023755;28;20453;-76
2023/01/07 11:11:31;;;;;;;;;;;9.70;96.00;;;;;;5024533;28;19929;-76
2023/01/07 11:14:00;;;;;;;;;;;9.70;95.90;;;;;;5017977;28;19933;-76
2023/01/07 11:16:28;;;;;;;;;;;9.70;95.90;;;;;;5018068;28;19933;-76
2023/01/07 11:18:58;;;;;;;;;;;9.80;95.90;;;;;;5016445;28;19933;-75
2023/01/07 11:21:32;;;;;;;;;;;9.80;95.80;;;;;;5021660;28;19951;-76
2023/01/07 11:24:00;;;;;;;;;;;9.80;95.70;;;;;;5019129;28;19940;-76
2023/01/07 11:26:28;;;;;;;;;;;9.80;95.60;;;;;;5016336;28;20024;-76
2023/01/07 11:28:56;;;;;;;;;;;9.80;95.60;;;;;;5024247;28;19934;-76
2023/01/07 11:31:42;;;;;;;;;;;9.80;95.60;;;;;;5020638;28;19936;-76
2023/01/07 11:34:16;;;;;;;;;;;9.90;95.60;;;;;;5019464;28;19937;-76
2023/01/07 11:36:43;;;;;;;;;;;9.80;95.50;;;;;;5021227;28;22121;-76
2023/01/07 11:39:10;;;;;;;;;;;9.90;95.60;;;;;;5022966;28;20719;-76
2023/01/07 11:41:37;;;;;;;;;;;9.90;95.60;;;;;;5021388;28;19928;-76
2023/01/07 11:44:04;;;;;;;;;;;9.90;95.60;;;;;;5025551;28;19933;-76
2023/01/07 11:46:31;;;;;;;;;;;9.90;95.60;;;;;;5019125;28;19933;-76
2023/01/07 11:48:59;;;;;;;;;;;9.90;95.50;;;;;;5020950;28;20560;-76
2023/01/07 11:51:37;;;;;;;;;;;10.00;95.50;;;;;;5019244;28;20496;-76
2023/01/07 11:54:04;;;;;;;;;;;9.90;95.50;;;;;;5023160;28;20518;-76
2023/01/07 11:56:32;;;;;;;;;;;10.00;95.50;;;;;;5021653;28;19936;-76
2023/01/07 11:59:15;;;;;;;;;;;10.00;95.50;;;;;;5021774;28;19940;-76
2023/01/07 12:01:43;;;;;;;;;;;10.00;95.40;;;;;;5020341;28;20012;-76
2023/01/07 12:04:14;;;;;;;;;;;10.10;95.40;;;;;;5020997;28;19967;-76
2023/01/07 12:06:44;;;;;;;;;;;10.10;95.30;;;;;;5023068;28;19929;-76
2023/01/07 12:09:17;;;;;;;;;;;10.10;95.20;;;;;;5021748;28;19929;-76
2023/01/07 12:11:44;;;;;;;;;;;10.10;95.20;;;;;;5020978;28;19933;-76
2023/01/07 12:14:19;;;;;;;;;;;10.20;95.20;;;;;;5017697;28;19929;-77
2023/01/07 12:16:47;;;;;;;;;;;10.10;95.20;;;;;;5018897;28;19940;-76
2023/01/07 12:19:21;;;;;;;;;;;10.20;95.20;;;;;;5019762;28;19933;-76
2023/01/07 12:21:54;;;;;;;;;;;10.20;95.10;;;;;;5016844;28;19936;-76
2023/01/07 12:24:40;;;;;;;;;;;10.20;94.90;;;;;;5018627;28;19929;-76
2023/01/07 12:27:15;;;;;;;;;;;10.30;94.80;;;;;;5023388;28;20645;-76
2023/01/07 12:29:49;;;;;;;;;;;10.30;94.20;;;;;;5017552;28;20016;-76
2023/01/07 12:32:22;;;;;;;;;;;10.30;94.30;;;;;;5015997;28;19933;-76
2023/01/07 12:34:50;;;;;;;;;;;10.30;94.40;;;;;;5015962;28;19980;-77
2023/01/07 12:37:24;;;;;;;;;;;10.40;94.50;;;;;;5020562;28;20442;-76
2023/01/07 12:39:52;;;;;;;;;;;10.40;94.40;;;;;;5024744;28;19937;-76
2023/01/07 12:42:20;;;;;;;;;;;10.40;94.30;;;;;;5017184;28;19929;-76
2023/01/07 12:44:49;;;;;;;;;;;10.50;93.80;;;;;;5015935;28;19929;-76
2023/01/07 12:47:18;;;;;;;;;;;10.50;93.80;;;;;;5017224;28;19941;-76
2023/01/07 12:49:48;;;;;;;;;;;10.50;93.80;;;;;;5017881;28;19929;-77
2023/01/07 12:52:15;;;;;;;;;;;10.50;93.70;;;;;;5018510;28;20288;-76
2023/01/07 12:54:47;;;;;;;;;;;10.50;93.80;;;;;;5021737;28;19933;-76
2023/01/07 12:57:15;;;;;;;;;;;10.50;93.80;;;;;;5021685;28;19929;-76
2023/01/07 12:59:45;;;;;;;;;;;10.60;93.80;;;;;;5021212;28;19929;-76
2023/01/07 13:02:17;;;;;;;;;;;10.60;93.60;;;;;;5016441;28;19987;-76
2023/01/07 13:04:48;;;;;;;;;;;10.60;93.40;;;;;;5018022;28;19929;-77
2023/01/07 13:07:18;;;;;;;;;;;10.60;93.40;;;;;;5023766;28;19936;-76
2023/01/07 13:09:51;;;;;;;;;;;10.60;93.20;;;;;;5018585;28;19929;-77
2023/01/07 13:12:45;;;;;;;;;;;10.70;93.10;;;;;;5018629;28;19933;-75
2023/01/07 13:15:16;;;;;;;;;;;10.70;93.10;;;;;;5015481;28;19940;-77
2023/01/07 13:17:42;;;;;;;;;;;10.70;93.10;;;;;;5017218;28;19937;-77
2023/01/07 13:20:11;;;;;;;;;;;10.80;93.00;;;;;;5014131;28;19956;-76
2023/01/07 13:22:40;;;;;;;;;;;10.70;92.90;;;;;;5022778;28;19987;-76
2023/01/07 13:25:16;;;;;;;;;;;10.80;92.80;;;;;;5016033;28;19933;-77
2023/01/07 13:27:58;;;;;;;;;;;10.80;92.80;;;;;;5016684;28;19980;-77
2023/01/07 13:30:26;;;;;;;;;;;10.80;92.80;;;;;;5018023;28;19929;-76
2023/01/07 13:32:58;;;;;;;;;;;10.80;92.80;;;;;;5009575;28;20532;-76
2023/01/07 13:35:31;;;;;;;;;;;10.80;92.70;;;;;;5022053;28;19932;-76
2023/01/07 13:38:06;;;;;;;;;;;10.80;92.70;;;;;;5021382;28;19932;-76
2023/01/07 13:40:53;;;;;;;;;;;10.80;92.80;;;;;;5022626;28;20043;-74
2023/01/07 13:43:29;;;;;;;;;;;10.80;92.90;;;;;;5014010;28;19929;-76
2023/01/07 13:45:57;;;;;;;;;;;10.80;92.60;;;;;;5012199;28;21160;-76
2023/01/07 13:48:25;;;;;;;;;;;10.90;92.50;;;;;;5014399;28;20009;-75
2023/01/07 13:50:56;;;;;;;;;;;11.00;92.50;;;;;;5023165;28;19941;-75
2023/01/07 13:53:31;;;;;;;;;;;11.00;92.40;;;;;;5023163;28;19936;-76
2023/01/07 13:56:28;;;;;;;;;;;11.00;92.30;;;;;;5022039;28;19967;-76
2023/01/07 13:58:57;;;;;;;;;;;11.10;92.30;;;;;;5020571;28;20346;-76
2023/01/07 14:01:24;;;;;;;;;;;11.20;92.30;;;;;;5019800;28;20442;-75
2023/01/07 14:03:52;;;;;;;;;;;11.20;92.30;;;;;;5023078;28;19936;-76
2023/01/07 14:06:42;;;;;;;;;;;11.30;92.30;;;;;;5025277;28;19939;-75
2023/01/07 14:09:32;;;;;;;;;;;11.30;92.00;;;;;;5021793;28;20425;-75
2023/01/07 14:12:19;;;;;;;;;;;11.40;92.00;;;;;;5024010;28;19933;-75
2023/01/07 14:14:52;;;;;;;;;;;11.40;91.70;;;;;;5025488;28;20108;-76
2023/01/07 14:17:22;;;;;;;;;;;11.50;91.50;;;;;;5022816;28;19929;-75
2023/01/07 14:19:53;;;;;;;;;;;11.50;91.70;;;;;;5027432;28;19936;-75
2023/01/07 14:22:26;;;;;;;;;;;11.50;91.70;;;;;;5022463;28;20425;-76
2023/01/07 14:25:01;;;;;;;;;;;11.50;91.80;;;;;;5021123;28;20422;-76
2023/01/07 14:27:35;;;;;;;;;;;11.50;91.70;;;;;;5025554;28;19935;-75
2023/01/07 14:30:04;;;;;;;;;;;11.50;91.60;;;;;;5025378;28;19936;-76
2023/01/07 14:32:32;;;;;;;;;;;11.60;91.70;;;;;;5016584;28;20016;-76
2023/01/07 14:35:00;;;;;;;;;;;11.50;91.60;;;;;;5020475;28;19943;-76
2023/01/07 14:37:34;;;;;;;;;;;11.50;91.80;;;;;;5024009;28;19947;-76